sensor_id;sensor_type;location;lat;lon;timestamp;pressure;altitude;pressure_sealevel;temperature;humidity
54920;BME280;63804;53.120;8.764;2024-02-04T00:02:11;102055.84;;;9.32;75.13
54920;BME280;63804;53.120;8.764;2024-02-04T00:04:41;102054.72;;;9.18;75.46
54920;BME280;63804;53.120;8.764;2024-02-04T00:07:08;102051.78;;;9.24;75.37
54920;BME280;63804;53.120;8.764;2024-02-04T00:09:36;102046.50;;;9.24;75.21
54920;BME280;63804;53.120;8.764;2024-02-04T00:12:03;102042.06;;;9.25;75.54
54920;BME280;63804;53.120;8.764;2024-02-04T00:14:32;102046.78;;;9.18;75.56
54920;BME280;63804;53.120;8.764;2024-02-04T00:16:59;102024.91;;;9.15;75.98
54920;BME280;63804;53.120;8.764;2024-02-04T00:19:26;102014.72;;;9.07;76.36
54920;BME280;63804;53.120;8.764;2024-02-04T00:21:54;102027.06;;;9.07;76.32
54920;BME280;63804;53.120;8.764;2024-02-04T00:24:21;102031.59;;;9.05;76.34
54920;BME280;63804;53.120;8.764;2024-02-04T00:26:48;102009.78;;;8.99;76.52
54920;BME280;63804;53.120;8.764;2024-02-04T00:29:15;102010.72;;;8.98;76.65
54920;BME280;63804;53.120;8.764;2024-02-04T00:31:42;102012.66;;;8.95;76.75
54920;BME280;63804;53.120;8.764;2024-02-04T00:34:09;102026.00;;;8.92;77.46
54920;BME280;63804;53.120;8.764;2024-02-04T00:36:37;102023.94;;;8.98;77.05
54920;BME280;63804;53.120;8.764;2024-02-04T00:39:04;102018.56;;;9.00;77.20
54920;BME280;63804;53.120;8.764;2024-02-04T00:41:31;102000.88;;;8.83;77.43
54920;BME280;63804;53.120;8.764;2024-02-04T00:43:58;102026.22;;;8.87;78.14
54920;BME280;63804;53.120;8.764;2024-02-04T00:46:25;102018.16;;;8.90;77.84
54920;BME280;63804;53.120;8.764;2024-02-04T00:48:52;102017.50;;;8.85;78.31
54920;BME280;63804;53.120;8.764;2024-02-04T00:51:19;102023.66;;;8.86;78.71
54920;BME280;63804;53.120;8.764;2024-02-04T00:53:46;102013.00;;;8.87;78.68
54920;BME280;63804;53.120;8.764;2024-02-04T00:56:13;102018.44;;;8.84;79.02
54920;BME280;63804;53.120;8.764;2024-02-04T00:58:40;102026.22;;;8.87;78.85
54920;BME280;63804;53.120;8.764;2024-02-04T01:01:07;102017.44;;;8.87;79.05
54920;BME280;63804;53.120;8.764;2024-02-04T01:03:34;102018.56;;;8.81;79.30
54920;BME280;63804;53.120;8.764;2024-02-04T01:06:02;102021.28;;;8.79;79.49
54920;BME280;63804;53.120;8.764;2024-02-04T01:08:29;102033.56;;;8.81;79.33
54920;BME280;63804;53.120;8.764;2024-02-04T01:10:56;102015.03;;;8.82;79.65
54920;BME280;63804;53.120;8.764;2024-02-04T01:13:23;102010.13;;;8.73;79.60
54920;BME280;63804;53.120;8.764;2024-02-04T01:15:50;102017.94;;;8.76;79.70
54920;BME280;63804;53.120;8.764;2024-02-04T01:18:17;102004.84;;;8.73;80.02
54920;BME280;63804;53.120;8.764;2024-02-04T01:20:44;101999.78;;;8.68;80.25
54920;BME280;63804;53.120;8.764;2024-02-04T01:23:11;102007.50;;;8.73;80.08
54920;BME280;63804;53.120;8.764;2024-02-04T01:25:39;102026.91;;;8.72;80.65
54920;BME280;63804;53.120;8.764;2024-02-04T01:28:10;102027.25;;;8.64;80.92
54920;BME280;63804;53.120;8.764;2024-02-04T01:30:37;102029.91;;;8.64;81.16
54920;BME280;63804;53.120;8.764;2024-02-04T01:33:04;102020.06;;;8.68;81.15
54920;BME280;63804;53.120;8.764;2024-02-04T01:35:31;102033.28;;;8.68;81.16
54920;BME280;63804;53.120;8.764;2024-02-04T01:37:58;102039.41;;;8.68;81.47
54920;BME280;63804;53.120;8.764;2024-02-04T01:40:25;102032.34;;;8.69;81.30
54920;BME280;63804;53.120;8.764;2024-02-04T01:42:53;102034.00;;;8.71;81.30
54920;BME280;63804;53.120;8.764;2024-02-04T01:45:20;102028.13;;;8.65;81.96
54920;BME280;63804;53.120;8.764;2024-02-04T01:47:47;102024.53;;;8.66;81.70
54920;BME280;63804;53.120;8.764;2024-02-04T01:50:16;102016.34;;;8.72;81.89
54920;BME280;63804;53.120;8.764;2024-02-04T01:52:44;102016.56;;;8.67;82.03
54920;BME280;63804;53.120;8.764;2024-02-04T01:55:11;102012.06;;;8.69;82.30
54920;BME280;63804;53.120;8.764;2024-02-04T01:57:39;101983.53;;;8.59;82.65
54920;BME280;63804;53.120;8.764;2024-02-04T02:00:08;101985.28;;;8.58;82.91
54920;BME280;63804;53.120;8.764;2024-02-04T02:02:40;101977.91;;;8.66;82.79
54920;BME280;63804;53.120;8.764;2024-02-04T02:05:08;101969.41;;;8.60;82.68
54920;BME280;63804;53.120;8.764;2024-02-04T02:07:36;101968.59;;;8.58;82.72
54920;BME280;63804;53.120;8.764;2024-02-04T02:10:04;101972.53;;;8.68;82.78
54920;BME280;63804;53.120;8.764;2024-02-04T02:12:47;101970.16;;;8.62;82.79
54920;BME280;63804;53.120;8.764;2024-02-04T02:15:27;101964.16;;;8.58;83.12
54920;BME280;63804;53.120;8.764;2024-02-04T02:18:06;101975.41;;;8.63;83.10
54920;BME280;63804;53.120;8.764;2024-02-04T02:21:02;101967.09;;;8.52;83.55
54920;BME280;63804;53.120;8.764;2024-02-04T02:23:43;101963.31;;;8.58;83.07
54920;BME280;63804;53.120;8.764;2024-02-04T02:26:16;101961.75;;;8.53;83.11
54920;BME280;63804;53.120;8.764;2024-02-04T02:28:43;101967.09;;;8.52;83.20
54920;BME280;63804;53.120;8.764;2024-02-04T02:31:10;101966.31;;;8.50;83.21
54920;BME280;63804;53.120;8.764;2024-02-04T02:33:37;101962.94;;;8.46;83.33
54920;BME280;63804;53.120;8.764;2024-02-04T02:36:11;101972.44;;;8.50;83.48
54920;BME280;63804;53.120;8.764;2024-02-04T02:38:47;101967.31;;;8.47;83.56
54920;BME280;63804;53.120;8.764;2024-02-04T02:41:20;101965.75;;;8.43;83.53
54920;BME280;63804;53.120;8.764;2024-02-04T02:43:47;101973.94;;;8.37;83.98
54920;BME280;63804;53.120;8.764;2024-02-04T02:46:16;101972.00;;;8.41;83.78
54920;BME280;63804;53.120;8.764;2024-02-04T02:48:44;101967.81;;;8.35;83.93
54920;BME280;63804;53.120;8.764;2024-02-04T02:51:11;101957.16;;;8.38;83.92
54920;BME280;63804;53.120;8.764;2024-02-04T02:53:38;101957.88;;;8.42;83.86
54920;BME280;63804;53.120;8.764;2024-02-04T02:56:05;101958.59;;;8.45;83.71
54920;BME280;63804;53.120;8.764;2024-02-04T02:58:32;101947.41;;;8.40;83.95
54920;BME280;63804;53.120;8.764;2024-02-04T03:00:59;101955.25;;;8.42;83.67
54920;BME280;63804;53.120;8.764;2024-02-04T03:03:27;101944.13;;;8.34;83.73
54920;BME280;63804;53.120;8.764;2024-02-04T03:05:54;101931.94;;;8.31;83.69
54920;BME280;63804;53.120;8.764;2024-02-04T03:08:21;101929.78;;;8.41;83.55
54920;BME280;63804;53.120;8.764;2024-02-04T03:10:48;101929.38;;;8.29;83.56
54920;BME280;63804;53.120;8.764;2024-02-04T03:13:15;101939.78;;;8.33;83.36
54920;BME280;63804;53.120;8.764;2024-02-04T03:15:42;101931.03;;;8.32;83.23
54920;BME280;63804;53.120;8.764;2024-02-04T03:18:09;101941.28;;;8.40;82.65
54920;BME280;63804;53.120;8.764;2024-02-04T03:20:36;101936.13;;;8.35;82.79
54920;BME280;63804;53.120;8.764;2024-02-04T03:23:03;101927.59;;;8.30;83.08
54920;BME280;63804;53.120;8.764;2024-02-04T03:25:30;101933.72;;;8.30;83.23
54920;BME280;63804;53.120;8.764;2024-02-04T03:27:57;101922.53;;;8.25;83.08
54920;BME280;63804;53.120;8.764;2024-02-04T03:30:24;101926.94;;;8.25;83.16
54920;BME280;63804;53.120;8.764;2024-02-04T03:32:51;101922.75;;;8.21;82.65
54920;BME280;63804;53.120;8.764;2024-02-04T03:35:18;101920.94;;;8.21;83.01
54920;BME280;63804;53.120;8.764;2024-02-04T03:37:45;101931.44;;;8.23;82.55
54920;BME280;63804;53.120;8.764;2024-02-04T03:40:12;101930.44;;;8.25;82.71
54920;BME280;63804;53.120;8.764;2024-02-04T03:42:39;101939.41;;;8.21;82.79
54920;BME280;63804;53.120;8.764;2024-02-04T03:45:07;101943.91;;;8.19;82.49
54920;BME280;63804;53.120;8.764;2024-02-04T03:47:35;101937.97;;;8.14;82.87
54920;BME280;63804;53.120;8.764;2024-02-04T03:50:02;101936.19;;;8.15;82.67
54920;BME280;63804;53.120;8.764;2024-02-04T03:52:30;101938.91;;;8.13;82.66
54920;BME280;63804;53.120;8.764;2024-02-04T03:54:57;101938.69;;;8.18;82.41
54920;BME280;63804;53.120;8.764;2024-02-04T03:57:26;101937.13;;;8.14;82.26
54920;BME280;63804;53.120;8.764;2024-02-04T03:59:53;101955.81;;;8.09;82.13
54920;BME280;63804;53.120;8.764;2024-02-04T04:02:20;101943.31;;;8.13;82.10
54920;BME280;63804;53.120;8.764;2024-02-04T04:04:47;101942.66;;;8.07;82.26
54920;BME280;63804;53.120;8.764;2024-02-04T04:07:15;101933.81;;;8.09;81.78
54920;BME280;63804;53.120;8.764;2024-02-04T04:09:43;101938.19;;;8.10;81.80
54920;BME280;63804;53.120;8.764;2024-02-04T04:12:10;101946.94;;;8.10;81.95
54920;BME280;63804;53.120;8.764;2024-02-04T04:14:37;101941.25;;;8.19;81.52
54920;BME280;63804;53.120;8.764;2024-02-04T04:17:04;101937.75;;;8.19;81.26
54920;BME280;63804;53.120;8.764;2024-02-04T04:19:31;101934.28;;;8.18;81.32
54920;BME280;63804;53.120;8.764;2024-02-04T04:22:00;101939.28;;;8.24;81.04
54920;BME280;63804;53.120;8.764;2024-02-04T04:24:28;101946.16;;;8.28;80.77
54920;BME280;63804;53.120;8.764;2024-02-04T04:26:55;101942.69;;;8.26;80.92
54920;BME280;63804;53.120;8.764;2024-02-04T04:29:22;101942.28;;;8.17;80.88
54920;BME280;63804;53.120;8.764;2024-02-04T04:31:49;101941.84;;;8.26;80.94
54920;BME280;63804;53.120;8.764;2024-02-04T04:34:16;101945.41;;;8.25;80.76
54920;BME280;63804;53.120;8.764;2024-02-04T04:36:45;101950.63;;;8.26;80.69
54920;BME280;63804;53.120;8.764;2024-02-04T04:39:12;101955.63;;;8.33;80.41
54920;BME280;63804;53.120;8.764;2024-02-04T04:41:41;101951.03;;;8.38;80.35
54920;BME280;63804;53.120;8.764;2024-02-04T04:44:08;101960.06;;;8.32;80.29
54920;BME280;63804;53.120;8.764;2024-02-04T04:46:39;101946.41;;;8.22;80.30
54920;BME280;63804;53.120;8.764;2024-02-04T04:49:09;101946.16;;;8.08;80.82
54920;BME280;63804;53.120;8.764;2024-02-04T04:51:36;101933.81;;;8.09;80.41
54920;BME280;63804;53.120;8.764;2024-02-04T04:54:03;101927.97;;;8.02;80.48
54920;BME280;63804;53.120;8.764;2024-02-04T04:56:30;101926.97;;;8.04;80.39
54920;BME280;63804;53.120;8.764;2024-02-04T04:58:57;101936.28;;;8.13;79.95
54920;BME280;63804;53.120;8.764;2024-02-04T05:01:24;101928.88;;;8.01;79.84
54920;BME280;63804;53.120;8.764;2024-02-04T05:03:51;101928.97;;;7.99;79.85
54920;BME280;63804;53.120;8.764;2024-02-04T05:06:19;101930.41;;;8.06;79.67
54920;BME280;63804;53.120;8.764;2024-02-04T05:08:46;101924.19;;;8.07;79.50
54920;BME280;63804;53.120;8.764;2024-02-04T05:11:13;101926.09;;;8.04;79.50
54920;BME280;63804;53.120;8.764;2024-02-04T05:13:40;101941.28;;;7.99;78.90
54920;BME280;63804;53.120;8.764;2024-02-04T05:16:07;101925.47;;;7.99;79.25
54920;BME280;63804;53.120;8.764;2024-02-04T05:18:34;101921.69;;;8.04;78.81
54920;BME280;63804;53.120;8.764;2024-02-04T05:21:02;101919.72;;;8.10;78.82
54920;BME280;63804;53.120;8.764;2024-02-04T05:23:29;101914.50;;;8.08;78.69
54920;BME280;63804;53.120;8.764;2024-02-04T05:25:56;101915.31;;;7.90;79.02
54920;BME280;63804;53.120;8.764;2024-02-04T05:28:23;101902.84;;;7.93;78.84
54920;BME280;63804;53.120;8.764;2024-02-04T05:30:50;101896.59;;;7.96;78.62
54920;BME280;63804;53.120;8.764;2024-02-04T05:33:17;101904.03;;;8.06;78.10
54920;BME280;63804;53.120;8.764;2024-02-04T05:35:44;101888.53;;;7.99;77.92
54920;BME280;63804;53.120;8.764;2024-02-04T05:38:11;101894.66;;;7.99;78.06
54920;BME280;63804;53.120;8.764;2024-02-04T05:40:38;101877.50;;;8.10;77.84
54920;BME280;63804;53.120;8.764;2024-02-04T05:43:06;101891.47;;;8.12;77.71
54920;BME280;63804;53.120;8.764;2024-02-04T05:45:38;101876.34;;;7.96;77.87
54920;BME280;63804;53.120;8.764;2024-02-04T05:48:09;101874.88;;;8.10;78.00
54920;BME280;63804;53.120;8.764;2024-02-04T05:50:36;101863.66;;;8.04;77.80
54920;BME280;63804;53.120;8.764;2024-02-04T05:53:03;101868.03;;;8.05;77.60
54920;BME280;63804;53.120;8.764;2024-02-04T05:55:30;101873.47;;;8.01;78.11
54920;BME280;63804;53.120;8.764;2024-02-04T05:57:57;101869.78;;;8.05;77.65
54920;BME280;63804;53.120;8.764;2024-02-04T06:00:25;101866.88;;;8.11;77.29
54920;BME280;63804;53.120;8.764;2024-02-04T06:02:53;101859.22;;;8.05;77.57
54920;BME280;63804;53.120;8.764;2024-02-04T06:05:20;101853.91;;;8.06;77.81
54920;BME280;63804;53.120;8.764;2024-02-04T06:07:47;101846.97;;;8.04;77.62
54920;BME280;63804;53.120;8.764;2024-02-04T06:10:14;101860.47;;;7.98;77.98
54920;BME280;63804;53.120;8.764;2024-02-04T06:12:43;101855.31;;;7.95;78.20
54920;BME280;63804;53.120;8.764;2024-02-04T06:15:13;101848.13;;;7.98;78.10
54920;BME280;63804;53.120;8.764;2024-02-04T06:17:41;101844.69;;;7.96;78.09
54920;BME280;63804;53.120;8.764;2024-02-04T06:20:09;101845.63;;;7.95;77.77
54920;BME280;63804;53.120;8.764;2024-02-04T06:22:36;101833.00;;;8.02;77.64
54920;BME280;63804;53.120;8.764;2024-02-04T06:25:03;101850.03;;;7.95;78.09
54920;BME280;63804;53.120;8.764;2024-02-04T06:27:31;101840.25;;;7.97;77.68
54920;BME280;63804;53.120;8.764;2024-02-04T06:29:58;101846.97;;;8.04;77.53
54920;BME280;63804;53.120;8.764;2024-02-04T06:32:25;101828.63;;;8.01;77.70
54920;BME280;63804;53.120;8.764;2024-02-04T06:34:52;101828.47;;;8.05;77.79
54920;BME280;63804;53.120;8.764;2024-02-04T06:37:22;101843.47;;;8.03;78.05
54920;BME280;63804;53.120;8.764;2024-02-04T06:39:49;101844.41;;;8.02;77.87
54920;BME280;63804;53.120;8.764;2024-02-04T06:42:16;101822.59;;;7.99;77.71
54920;BME280;63804;53.120;8.764;2024-02-04T06:44:46;101820.47;;;8.07;77.90
54920;BME280;63804;53.120;8.764;2024-02-04T06:47:13;101831.09;;;8.05;77.92
54920;BME280;63804;53.120;8.764;2024-02-04T06:49:44;101838.06;;;8.06;78.15
54920;BME280;63804;53.120;8.764;2024-02-04T06:52:12;101835.84;;;7.97;78.52
54920;BME280;63804;53.120;8.764;2024-02-04T06:54:40;101838.13;;;8.05;78.18
54920;BME280;63804;53.120;8.764;2024-02-04T06:57:07;101827.31;;;8.11;78.06
54920;BME280;63804;53.120;8.764;2024-02-04T06:59:33;101834.38;;;8.11;77.99
54920;BME280;63804;53.120;8.764;2024-02-04T07:02:00;101829.19;;;8.09;78.07
54920;BME280;63804;53.120;8.764;2024-02-04T07:04:27;101827.09;;;8.16;78.28
54920;BME280;63804;53.120;8.764;2024-02-04T07:06:55;101821.19;;;8.11;78.12
54920;BME280;63804;53.120;8.764;2024-02-04T07:09:22;101812.19;;;7.96;77.99
54920;BME280;63804;53.120;8.764;2024-02-04T07:11:49;101833.72;;;8.05;78.46
54920;BME280;63804;53.120;8.764;2024-02-04T07:14:16;101836.91;;;8.12;78.30
54920;BME280;63804;53.120;8.764;2024-02-04T07:16:43;101841.56;;;8.07;78.35
54920;BME280;63804;53.120;8.764;2024-02-04T07:19:10;101828.47;;;8.05;78.41
54920;BME280;63804;53.120;8.764;2024-02-04T07:21:37;101838.72;;;8.12;78.16
54920;BME280;63804;53.120;8.764;2024-02-04T07:24:04;101833.94;;;8.20;78.34
54920;BME280;63804;53.120;8.764;2024-02-04T07:26:31;101829.22;;;8.26;77.79
54920;BME280;63804;53.120;8.764;2024-02-04T07:28:58;101839.72;;;8.28;77.65
54920;BME280;63804;53.120;8.764;2024-02-04T07:31:25;101818.03;;;8.21;77.95
54920;BME280;63804;53.120;8.764;2024-02-04T07:33:52;101819.03;;;8.19;77.77
54920;BME280;63804;53.120;8.764;2024-02-04T07:36:19;101828.50;;;8.23;77.70
54920;BME280;63804;53.120;8.764;2024-02-04T07:38:46;101811.84;;;8.22;77.63
54920;BME280;63804;53.120;8.764;2024-02-04T07:41:14;101803.34;;;8.35;77.02
54920;BME280;63804;53.120;8.764;2024-02-04T07:43:42;101799.00;;;8.34;77.31
54920;BME280;63804;53.120;8.764;2024-02-04T07:46:10;101802.28;;;8.39;77.17
54920;BME280;63804;53.120;8.764;2024-02-04T07:48:38;101790.22;;;8.33;77.04
54920;BME280;63804;53.120;8.764;2024-02-04T07:51:06;101790.34;;;8.30;77.02
54920;BME280;63804;53.120;8.764;2024-02-04T07:53:33;101776.41;;;8.28;77.22
54920;BME280;63804;53.120;8.764;2024-02-04T07:56:03;101774.25;;;8.36;76.73
54920;BME280;63804;53.120;8.764;2024-02-04T07:58:31;101800.50;;;8.39;76.54
54920;BME280;63804;53.120;8.764;2024-02-04T08:00:58;101791.81;;;8.37;76.83
54920;BME280;63804;53.120;8.764;2024-02-04T08:03:25;101788.72;;;8.46;76.37
54920;BME280;63804;53.120;8.764;2024-02-04T08:05:52;101785.31;;;8.44;76.48
54920;BME280;63804;53.120;8.764;2024-02-04T08:08:19;101791.16;;;8.51;76.08
54920;BME280;63804;53.120;8.764;2024-02-04T08:10:46;101811.41;;;8.50;76.50
54920;BME280;63804;53.120;8.764;2024-02-04T08:13:13;101810.41;;;8.53;76.21
54920;BME280;63804;53.120;8.764;2024-02-04T08:15:41;101812.97;;;8.54;76.19
54920;BME280;63804;53.120;8.764;2024-02-04T08:18:08;101815.06;;;8.48;76.24
54920;BME280;63804;53.120;8.764;2024-02-04T08:20:35;101813.13;;;8.51;76.22
54920;BME280;63804;53.120;8.764;2024-02-04T08:23:02;101819.19;;;8.53;75.66
54920;BME280;63804;53.120;8.764;2024-02-04T08:25:29;101825.47;;;8.51;75.79
54920;BME280;63804;53.120;8.764;2024-02-04T08:27:58;101832.25;;;8.57;75.91
54920;BME280;63804;53.120;8.764;2024-02-04T08:30:25;101827.09;;;8.53;75.75
54920;BME280;63804;53.120;8.764;2024-02-04T08:32:52;101819.75;;;8.60;75.98
54920;BME280;63804;53.120;8.764;2024-02-04T08:35:19;101811.91;;;8.59;75.63
54920;BME280;63804;53.120;8.764;2024-02-04T08:37:46;101810.59;;;8.67;75.05
54920;BME280;63804;53.120;8.764;2024-02-04T08:40:13;101816.03;;;8.64;74.82
54920;BME280;63804;53.120;8.764;2024-02-04T08:42:41;101813.63;;;8.60;74.96
54920;BME280;63804;53.120;8.764;2024-02-04T08:45:08;101822.03;;;8.68;74.93
54920;BME280;63804;53.120;8.764;2024-02-04T08:47:35;101799.00;;;8.70;75.10
54920;BME280;63804;53.120;8.764;2024-02-04T08:50:02;101804.28;;;8.70;74.80
54920;BME280;63804;53.120;8.764;2024-02-04T08:52:29;101807.59;;;8.75;74.55
54920;BME280;63804;53.120;8.764;2024-02-04T08:54:57;101814.94;;;8.68;74.84
54920;BME280;63804;53.120;8.764;2024-02-04T08:57:27;101808.91;;;8.66;74.74
54920;BME280;63804;53.120;8.764;2024-02-04T08:59:54;101808.28;;;8.78;74.31
54920;BME280;63804;53.120;8.764;2024-02-04T09:02:21;101798.03;;;8.72;74.22
54920;BME280;63804;53.120;8.764;2024-02-04T09:04:48;101810.22;;;8.75;74.04
54920;BME280;63804;53.120;8.764;2024-02-04T09:07:15;101819.63;;;8.81;73.73
54920;BME280;63804;53.120;8.764;2024-02-04T09:09:43;101816.00;;;8.83;73.98
54920;BME280;63804;53.120;8.764;2024-02-04T09:12:10;101827.53;;;8.81;74.03
54920;BME280;63804;53.120;8.764;2024-02-04T09:14:37;101820.28;;;8.86;73.50
54920;BME280;63804;53.120;8.764;2024-02-04T09:17:05;101829.81;;;8.88;73.35
54920;BME280;63804;53.120;8.764;2024-02-04T09:19:33;101817.53;;;8.87;73.47
54920;BME280;63804;53.120;8.764;2024-02-04T09:22:05;101811.78;;;8.96;73.08
54920;BME280;63804;53.120;8.764;2024-02-04T09:24:32;101820.28;;;9.03;72.51
54920;BME280;63804;53.120;8.764;2024-02-04T09:26:59;101832.47;;;9.06;72.40
54920;BME280;63804;53.120;8.764;2024-02-04T09:29:26;101834.97;;;9.09;72.21
54920;BME280;63804;53.120;8.764;2024-02-04T09:31:53;101821.13;;;9.03;72.63
54920;BME280;63804;53.120;8.764;2024-02-04T09:34:21;101820.38;;;9.01;71.98
54920;BME280;63804;53.120;8.764;2024-02-04T09:36:48;101826.25;;;9.07;71.91
54920;BME280;63804;53.120;8.764;2024-02-04T09:39:16;101819.19;;;9.07;72.15
54920;BME280;63804;53.120;8.764;2024-02-04T09:41:43;101817.56;;;9.05;72.43
54920;BME280;63804;53.120;8.764;2024-02-04T09:44:11;101808.63;;;9.07;72.23
54920;BME280;63804;53.120;8.764;2024-02-04T09:46:43;101824.41;;;9.09;72.19
54920;BME280;63804;53.120;8.764;2024-02-04T09:49:11;101800.44;;;9.12;72.22
54920;BME280;63804;53.120;8.764;2024-02-04T09:51:40;101801.78;;;9.20;71.77
54920;BME280;63804;53.120;8.764;2024-02-04T09:54:09;101795.66;;;9.20;71.77
54920;BME280;63804;53.120;8.764;2024-02-04T09:56:38;101779.72;;;9.21;71.70
54920;BME280;63804;53.120;8.764;2024-02-04T09:59:05;101789.88;;;9.29;71.57
54920;BME280;63804;53.120;8.764;2024-02-04T10:01:32;101797.41;;;9.37;71.20
54920;BME280;63804;53.120;8.764;2024-02-04T10:04:00;101786.59;;;9.41;71.17
54920;BME280;63804;53.120;8.764;2024-02-04T10:06:27;101805.88;;;9.43;71.23
54920;BME280;63804;53.120;8.764;2024-02-04T10:08:54;101820.13;;;9.41;71.37
54920;BME280;63804;53.120;8.764;2024-02-04T10:11:22;101814.06;;;9.39;71.24
54920;BME280;63804;53.120;8.764;2024-02-04T10:13:49;101808.38;;;9.46;71.04
54920;BME280;63804;53.120;8.764;2024-02-04T10:16:17;101800.13;;;9.52;70.99
54920;BME280;63804;53.120;8.764;2024-02-04T10:18:45;101791.03;;;9.58;70.69
54920;BME280;63804;53.120;8.764;2024-02-04T10:21:20;101802.09;;;9.65;70.68
54920;BME280;63804;53.120;8.764;2024-02-04T10:23:48;101789.78;;;9.48;71.21
54920;BME280;63804;53.120;8.764;2024-02-04T10:26:17;101794.06;;;9.50;71.19
54920;BME280;63804;53.120;8.764;2024-02-04T10:28:48;101795.28;;;9.61;70.65
54920;BME280;63804;53.120;8.764;2024-02-04T10:31:15;101800.91;;;9.55;70.65
54920;BME280;63804;53.120;8.764;2024-02-04T10:33:43;101801.19;;;9.66;70.62
54920;BME280;63804;53.120;8.764;2024-02-04T10:36:11;101802.94;;;9.65;70.50
54920;BME280;63804;53.120;8.764;2024-02-04T10:38:38;101776.84;;;9.59;70.65
54920;BME280;63804;53.120;8.764;2024-02-04T10:41:06;101790.50;;;9.67;70.69
54920;BME280;63804;53.120;8.764;2024-02-04T10:43:34;101782.03;;;9.61;70.73
54920;BME280;63804;53.120;8.764;2024-02-04T10:46:09;101790.19;;;9.73;70.22
54920;BME280;63804;53.120;8.764;2024-02-04T10:48:37;101780.22;;;9.79;70.36
54920;BME280;63804;53.120;8.764;2024-02-04T10:51:14;101780.53;;;9.72;69.85
54920;BME280;63804;53.120;8.764;2024-02-04T10:53:42;101783.88;;;9.76;70.08
54920;BME280;63804;53.120;8.764;2024-02-04T10:56:36;101768.97;;;9.91;69.37
54920;BME280;63804;53.120;8.764;2024-02-04T10:59:04;101782.88;;;9.79;69.90
54920;BME280;63804;53.120;8.764;2024-02-04T11:01:33;101767.53;;;9.85;70.21
54920;BME280;63804;53.120;8.764;2024-02-04T11:04:00;101783.41;;;9.85;70.04
54920;BME280;63804;53.120;8.764;2024-02-04T11:06:30;101777.75;;;9.91;69.64
54920;BME280;63804;53.120;8.764;2024-02-04T11:08:58;101782.19;;;9.91;69.63
54920;BME280;63804;53.120;8.764;2024-02-04T11:11:27;101785.63;;;9.93;69.73
54920;BME280;63804;53.120;8.764;2024-02-04T11:14:00;101786.63;;;9.90;69.64
54920;BME280;63804;53.120;8.764;2024-02-04T11:27:20;101758.47;;;9.89;69.83
54920;BME280;63804;53.120;8.764;2024-02-04T11:29:48;101777.53;;;9.96;69.34
54920;BME280;63804;53.120;8.764;2024-02-04T11:32:17;101770.75;;;9.90;69.42
54920;BME280;63804;53.120;8.764;2024-02-04T11:34:45;101765.38;;;9.92;69.77
54920;BME280;63804;53.120;8.764;2024-02-04T11:37:16;101775.38;;;10.02;69.35
54920;BME280;63804;53.120;8.764;2024-02-04T11:39:51;101761.56;;;9.97;68.90
54920;BME280;63804;53.120;8.764;2024-02-04T11:42:19;101762.31;;;9.99;69.31
54920;BME280;63804;53.120;8.764;2024-02-04T11:44:47;101756.09;;;10.00;69.30
54920;BME280;63804;53.120;8.764;2024-02-04T11:47:24;101743.13;;;10.12;68.38
54920;BME280;63804;53.120;8.764;2024-02-04T11:49:56;101745.00;;;10.10;68.40
54920;BME280;63804;53.120;8.764;2024-02-04T11:52:28;101743.97;;;10.12;68.12
54920;BME280;63804;53.120;8.764;2024-02-04T11:54:55;101751.06;;;10.12;68.29
54920;BME280;63804;53.120;8.764;2024-02-04T11:57:23;101736.44;;;10.20;68.04
54920;BME280;63804;53.120;8.764;2024-02-04T11:59:52;101748.28;;;10.31;68.15
54920;BME280;63804;53.120;8.764;2024-02-04T12:02:24;101746.38;;;10.33;67.85
54920;BME280;63804;53.120;8.764;2024-02-04T12:04:51;101748.28;;;10.31;68.05
54920;BME280;63804;53.120;8.764;2024-02-04T12:07:19;101749.59;;;10.22;67.98
54920;BME280;63804;53.120;8.764;2024-02-04T12:09:47;101755.84;;;10.21;68.43
54920;BME280;63804;53.120;8.764;2024-02-04T12:12:15;101762.66;;;10.09;68.52
54920;BME280;63804;53.120;8.764;2024-02-04T12:14:45;101761.56;;;9.97;68.39
54920;BME280;63804;53.120;8.764;2024-02-04T12:17:12;101746.94;;;10.06;68.93
54920;BME280;63804;53.120;8.764;2024-02-04T12:19:40;101753.09;;;10.07;68.83
54920;BME280;63804;53.120;8.764;2024-02-04T12:22:10;101741.81;;;10.03;69.00
54920;BME280;63804;53.120;8.764;2024-02-04T12:24:38;101752.09;;;9.93;69.16
54920;BME280;63804;53.120;8.764;2024-02-04T12:27:06;101736.19;;;9.93;68.84
54920;BME280;63804;53.120;8.764;2024-02-04T12:29:34;101741.13;;;9.99;69.16
54920;BME280;63804;53.120;8.764;2024-02-04T12:32:02;101737.66;;;9.99;69.04
54920;BME280;63804;53.120;8.764;2024-02-04T12:34:30;101754.19;;;10.02;69.08
54920;BME280;63804;53.120;8.764;2024-02-04T12:37:00;101749.69;;;10.05;68.56
54920;BME280;63804;53.120;8.764;2024-02-04T12:39:28;101740.66;;;10.09;68.74
54920;BME280;63804;53.120;8.764;2024-02-04T12:41:56;101734.34;;;10.11;68.72
54920;BME280;63804;53.120;8.764;2024-02-04T12:44:23;101729.91;;;10.12;69.11
54920;BME280;63804;53.120;8.764;2024-02-04T12:46:53;101729.69;;;10.15;68.93
54920;BME280;63804;53.120;8.764;2024-02-04T12:49:21;101727.41;;;10.09;69.20
54920;BME280;63804;53.120;8.764;2024-02-04T12:51:49;101718.09;;;10.01;69.29
54920;BME280;63804;53.120;8.764;2024-02-04T12:54:18;101722.03;;;9.94;69.72
54920;BME280;63804;53.120;8.764;2024-02-04T12:56:48;101730.97;;;9.92;69.77
54920;BME280;63804;53.120;8.764;2024-02-04T12:59:32;101715.19;;;9.90;69.35
54920;BME280;63804;53.120;8.764;2024-02-04T13:04:40;101703.75;;;9.90;69.70
54920;BME280;63804;53.120;8.764;2024-02-04T13:07:10;101700.28;;;9.89;69.98
54920;BME280;63804;53.120;8.764;2024-02-04T13:09:42;101708.47;;;9.85;69.98
54920;BME280;63804;53.120;8.764;2024-02-04T13:12:10;101706.75;;;9.84;69.87
54920;BME280;63804;53.120;8.764;2024-02-04T13:14:38;101706.06;;;9.80;69.90
54920;BME280;63804;53.120;8.764;2024-02-04T13:17:05;101714.19;;;9.93;69.63
54920;BME280;63804;53.120;8.764;2024-02-04T13:19:39;101701.81;;;9.93;69.47